Time;durP1;ratioP1;P1;durP2;ratioP2;P2;SDS_P1;SDS_P2;PMS_P1;PMS_P2;Temp;Humidity;BMP_temperature;BMP_pressure;BME280_temperature;BME280_humidity;BME280_pressure;Samples;Min_cycle;Max_cycle;Signal;HPM_P1;HPM_P2
2021/03/01 00:00:28;;;;;;;17.67;8.52;;;2.70;99.90;;;;;;5051244;28;20036;-51
2021/03/01 00:02:55;;;;;;;17.67;8.65;;;2.80;99.90;;;;;;5051236;28;20049;-52
2021/03/01 00:05:21;;;;;;;18.45;9.30;;;2.80;99.90;;;;;;5050307;28;20120;-55
2021/03/01 00:07:47;;;;;;;22.50;10.30;;;2.90;99.90;;;;;;5051631;28;20496;-54
2021/03/01 00:10:13;;;;;;;18.15;10.05;;;3.00;99.90;;;;;;5051457;28;20036;-55
2021/03/01 00:12:39;;;;;;;16.33;9.20;;;3.00;99.90;;;;;;5051141;28;20028;-53
2021/03/01 00:15:06;;;;;;;16.88;7.82;;;3.10;99.90;;;;;;5051450;28;20029;-54
2021/03/01 00:17:32;;;;;;;19.30;9.05;;;3.10;99.90;;;;;;5050971;28;20107;-51
2021/03/01 00:19:58;;;;;;;14.73;8.57;;;3.20;99.90;;;;;;5050155;28;20028;-53
2021/03/01 00:22:23;;;;;;;14.05;8.45;;;3.10;99.90;;;;;;5051170;28;20440;-54
2021/03/01 00:24:49;;;;;;;15.18;8.90;;;3.20;99.90;;;;;;5051039;28;20079;-56
2021/03/01 00:27:14;;;;;;;14.25;8.25;;;3.20;99.90;;;;;;5050536;28;20495;-50
2021/03/01 00:29:40;;;;;;;15.95;8.32;;;3.20;99.90;;;;;;5052139;28;20068;-52
2021/03/01 00:32:06;;;;;;;15.50;8.65;;;3.20;99.90;;;;;;5050772;28;20096;-52
2021/03/01 00:34:32;;;;;;;23.40;9.75;;;3.20;99.90;;;;;;5050759;28;20029;-56
2021/03/01 00:36:57;;;;;;;19.42;8.80;;;3.20;99.90;;;;;;5052017;28;20032;-55
2021/03/01 00:39:23;;;;;;;14.80;8.40;;;3.20;99.90;;;;;;5052070;28;20033;-53
2021/03/01 00:41:48;;;;;;;12.23;7.82;;;3.20;99.90;;;;;;5051964;28;20040;-53
2021/03/01 00:44:14;;;;;;;15.95;9.13;;;3.20;99.90;;;;;;5050723;28;20024;-54
2021/03/01 00:46:39;;;;;;;11.95;7.50;;;3.30;99.90;;;;;;5051700;28;20120;-49
2021/03/01 00:49:05;;;;;;;19.08;9.02;;;3.30;99.90;;;;;;5049659;28;20078;-52
2021/03/01 00:51:31;;;;;;;14.90;9.18;;;3.30;99.90;;;;;;5051863;28;20400;-54
2021/03/01 00:53:57;;;;;;;12.45;7.68;;;3.30;99.90;;;;;;5051696;28;20056;-56
2021/03/01 00:56:22;;;;;;;13.80;7.30;;;3.30;99.90;;;;;;5051926;28;20021;-54
2021/03/01 00:58:48;;;;;;;14.52;7.30;;;3.40;99.90;;;;;;5051895;28;20029;-56
2021/03/01 01:01:13;;;;;;;12.82;7.00;;;3.40;99.90;;;;;;5048629;28;20056;-53
2021/03/01 01:03:39;;;;;;;16.23;8.23;;;3.30;99.90;;;;;;5050703;28;20033;-56
2021/03/01 01:06:04;;;;;;;17.63;7.85;;;3.40;99.90;;;;;;5055567;28;20021;-56
2021/03/01 01:08:30;;;;;;;13.80;7.55;;;3.40;99.90;;;;;;5055348;28;20037;-51
2021/03/01 01:10:56;;;;;;;17.13;7.90;;;3.40;99.90;;;;;;5055663;28;20029;-55
2021/03/01 01:13:21;;;;;;;16.63;8.25;;;3.40;99.90;;;;;;5055154;28;20029;-54
2021/03/01 01:15:47;;;;;;;17.42;8.40;;;3.50;99.90;;;;;;5055306;28;20025;-51
2021/03/01 01:18:12;;;;;;;20.55;9.48;;;3.40;99.90;;;;;;5055055;28;20479;-52
2021/03/01 01:20:38;;;;;;;19.90;8.45;;;3.50;99.90;;;;;;5054306;28;20103;-53
2021/03/01 01:23:03;;;;;;;16.60;8.57;;;3.40;99.90;;;;;;5055102;28;20039;-54
2021/03/01 01:25:29;;;;;;;14.75;7.32;;;3.50;99.90;;;;;;5055144;28;20055;-56
2021/03/01 01:27:54;;;;;;;14.90;7.82;;;3.50;99.90;;;;;;5054984;28;20196;-55
2021/03/01 01:30:22;;;;;;;15.55;7.55;;;3.50;99.90;;;;;;5055045;28;20028;-53
2021/03/01 01:32:48;;;;;;;16.83;8.70;;;3.50;99.90;;;;;;5054598;28;20077;-54
2021/03/01 01:35:15;;;;;;;17.80;8.50;;;3.50;99.90;;;;;;5053831;28;20064;-51
2021/03/01 01:37:41;;;;;;;15.52;7.72;;;3.50;99.90;;;;;;5054774;28;20025;-52
2021/03/01 01:40:09;;;;;;;18.85;8.68;;;3.50;99.90;;;;;;5054991;28;20051;-52
2021/03/01 01:42:35;;;;;;;19.33;8.27;;;3.60;99.90;;;;;;5053360;28;20025;-54
2021/03/01 01:45:01;;;;;;;14.52;7.32;;;3.60;99.90;;;;;;5054869;28;20396;-54
2021/03/01 01:47:26;;;;;;;16.48;8.15;;;3.60;99.90;;;;;;5054463;28;20060;-54
2021/03/01 01:49:52;;;;;;;19.65;8.88;;;3.60;99.90;;;;;;5053635;28;20494;-53
2021/03/01 01:52:18;;;;;;;17.85;8.48;;;3.60;99.90;;;;;;5054569;28;20040;-54
2021/03/01 01:54:43;;;;;;;16.63;7.28;;;3.70;99.90;;;;;;5054372;28;20041;-54
2021/03/01 01:57:11;;;;;;;16.27;8.18;;;3.70;99.90;;;;;;5050867;28;20057;-56
2021/03/01 01:59:36;;;;;;;21.52;8.55;;;3.70;99.90;;;;;;5054522;28;20020;-55
2021/03/01 02:02:02;;;;;;;18.05;8.70;;;3.80;99.90;;;;;;5054387;28;20040;-54
2021/03/01 02:04:34;;;;;;;17.05;8.55;;;3.80;99.90;;;;;;5053178;28;20029;-55
2021/03/01 02:07:07;;;;;;;17.30;7.70;;;3.80;99.90;;;;;;5054407;28;20115;-56
2021/03/01 02:09:36;;;;;;;16.00;7.72;;;3.80;99.90;;;;;;5054379;28;20471;-54
2021/03/01 02:12:17;;;;;;;17.00;7.88;;;3.80;99.90;;;;;;5054200;28;20449;-52
2021/03/01 02:15:00;;;;;;;18.02;7.70;;;3.80;99.90;;;;;;5054062;28;20032;-54
2021/03/01 02:17:26;;;;;;;17.80;8.32;;;3.90;99.90;;;;;;5053954;28;20279;-53
2021/03/01 02:19:53;;;;;;;18.75;8.52;;;3.90;99.90;;;;;;5053105;28;20068;-56
2021/03/01 02:22:18;;;;;;;20.83;8.25;;;3.90;99.90;;;;;;5052747;28;20067;-55
2021/03/01 02:25:06;;;;;;;16.52;7.82;;;3.90;99.90;;;;;;5054028;28;20052;-51
2021/03/01 02:27:36;;;;;;;16.20;7.85;;;3.90;99.90;;;;;;5054009;28;20591;-57
2021/03/01 02:30:25;;;;;;;14.65;7.93;;;3.90;99.90;;;;;;5054013;28;20028;-53
2021/03/01 02:32:58;;;;;;;19.42;7.85;;;4.00;99.90;;;;;;5053724;28;20037;-55
2021/03/01 02:35:24;;;;;;;16.70;8.20;;;4.00;99.90;;;;;;5052449;28;20124;-53
2021/03/01 02:37:50;;;;;;;16.52;8.20;;;4.00;99.90;;;;;;5053587;28;20111;-53
2021/03/01 02:40:19;;;;;;;15.00;7.95;;;4.00;99.90;;;;;;5053752;28;20032;-55
2021/03/01 02:42:45;;;;;;;15.73;8.23;;;4.00;99.90;;;;;;5053503;28;20104;-54
2021/03/01 02:45:12;;;;;;;17.42;8.10;;;4.00;99.90;;;;;;5053705;28;20029;-56
2021/03/01 02:47:39;;;;;;;13.77;7.43;;;4.00;99.90;;;;;;5053454;28;20036;-51
2021/03/01 02:50:06;;;;;;;16.77;8.32;;;4.00;99.90;;;;;;5052509;28;20021;-53
2021/03/01 02:52:33;;;;;;;19.00;8.68;;;4.00;99.90;;;;;;5053352;28;20054;-56
2021/03/01 02:54:59;;;;;;;19.55;7.88;;;4.00;99.90;;;;;;5053308;28;20051;-55
2021/03/01 02:57:25;;;;;;;16.42;7.22;;;4.00;99.90;;;;;;5049923;28;20031;-55
2021/03/01 02:59:53;;;;;;;17.90;8.30;;;4.00;99.90;;;;;;5053302;28;20021;-54
2021/03/01 03:02:21;;;;;;;15.45;7.75;;;4.10;99.90;;;;;;5053390;28;20021;-53
2021/03/01 03:04:48;;;;;;;15.48;7.97;;;4.00;99.90;;;;;;5052059;28;20029;-52
2021/03/01 03:07:14;;;;;;;13.55;7.50;;;4.10;99.90;;;;;;5053300;28;20024;-56
2021/03/01 03:09:43;;;;;;;17.33;7.78;;;4.10;99.90;;;;;;5053056;28;20039;-54
2021/03/01 03:12:09;;;;;;;14.13;7.65;;;4.10;99.90;;;;;;5053235;28;20028;-52
2021/03/01 03:14:37;;;;;;;15.70;7.32;;;4.10;99.90;;;;;;5053018;28;20132;-57
2021/03/01 03:17:03;;;;;;;17.75;8.05;;;4.10;99.90;;;;;;5053030;28;20017;-56
2021/03/01 03:19:28;;;;;;;17.63;7.90;;;4.10;99.90;;;;;;5051862;28;20063;-54
2021/03/01 03:21:54;;;;;;;17.90;8.85;;;4.10;99.90;;;;;;5052895;28;20491;-55
2021/03/01 03:24:19;;;;;;;14.90;8.48;;;4.10;99.90;;;;;;5052286;28;20021;-54
2021/03/01 03:26:45;;;;;;;14.23;7.85;;;4.10;99.90;;;;;;5052776;28;20032;-52
2021/03/01 03:29:11;;;;;;;18.92;8.55;;;4.10;99.90;;;;;;5052891;28;20067;-51
2021/03/01 03:31:36;;;;;;;16.38;8.43;;;4.10;99.90;;;;;;5049122;28;20039;-55
2021/03/01 03:34:02;;;;;;;19.20;9.40;;;4.20;99.90;;;;;;5051594;28;20381;-55
2021/03/01 03:36:31;;;;;;;21.05;9.60;;;4.20;99.90;;;;;;5052707;28;20375;-53
2021/03/01 03:39:05;;;;;;;15.50;8.00;;;4.20;99.90;;;;;;5051336;28;20021;-55
2021/03/01 03:41:32;;;;;;;14.55;7.22;;;4.20;99.90;;;;;;5052719;28;20104;-54
2021/03/01 03:44:00;;;;;;;17.23;8.65;;;4.20;99.90;;;;;;5052491;28;20388;-53
2021/03/01 03:46:28;;;;;;;17.80;7.82;;;4.10;99.90;;;;;;5052473;28;20033;-53
2021/03/01 03:48:55;;;;;;;19.38;8.73;;;4.20;99.90;;;;;;5051127;28;20031;-54
2021/03/01 03:51:24;;;;;;;18.00;10.15;;;4.20;99.90;;;;;;5052626;28;20025;-56
2021/03/01 03:53:55;;;;;;;17.15;8.30;;;4.20;99.90;;;;;;5052036;28;20037;-55
2021/03/01 03:56:24;;;;;;;16.20;8.05;;;4.20;99.90;;;;;;5051271;28;20021;-55
2021/03/01 03:58:57;;;;;;;21.13;8.68;;;4.20;99.90;;;;;;5052409;28;20041;-56
2021/03/01 04:01:24;;;;;;;19.85;8.93;;;4.10;99.90;;;;;;5052714;28;20096;-51
2021/03/01 04:03:52;;;;;;;17.83;8.48;;;4.20;99.90;;;;;;5050995;28;20033;-52
2021/03/01 04:06:20;;;;;;;17.67;9.02;;;4.20;99.90;;;;;;5052277;28;20481;-53
2021/03/01 04:08:49;;;;;;;16.02;7.68;;;4.20;99.90;;;;;;5052200;28;20033;-53
2021/03/01 04:11:21;;;;;;;19.23;9.35;;;4.20;99.90;;;;;;5052213;28;20025;-54
2021/03/01 04:13:48;;;;;;;19.05;9.13;;;4.20;99.90;;;;;;5050770;28;20040;-54
2021/03/01 04:16:15;;;;;;;15.10;8.13;;;4.20;99.90;;;;;;5052470;28;20028;-52
2021/03/01 04:18:43;;;;;;;19.00;9.48;;;4.20;99.90;;;;;;5049720;28;20519;-55
2021/03/01 04:21:10;;;;;;;17.02;8.93;;;4.20;99.90;;;;;;5052088;28;20033;-52
2021/03/01 04:23:37;;;;;;;21.48;9.77;;;4.20;99.90;;;;;;5052139;28;20163;-55
2021/03/01 04:26:03;;;;;;;19.67;9.60;;;4.20;99.90;;;;;;5052002;28;20514;-53
2021/03/01 04:28:30;;;;;;;19.42;9.27;;;4.20;99.90;;;;;;5052238;28;20461;-53
2021/03/01 04:31:02;;;;;;;20.45;9.98;;;4.20;99.90;;;;;;5052163;28;20033;-56
2021/03/01 04:33:28;;;;;;;21.90;10.07;;;4.20;99.90;;;;;;5051319;28;20033;-55
2021/03/01 04:35:55;;;;;;;21.90;10.15;;;4.20;99.90;;;;;;5053270;28;20519;-54
2021/03/01 04:38:21;;;;;;;17.40;8.25;;;4.20;99.90;;;;;;5054604;28;20518;-55
2021/03/01 04:40:49;;;;;;;20.50;9.77;;;4.20;99.90;;;;;;5055872;28;20029;-54
2021/03/01 04:43:15;;;;;;;24.70;8.88;;;4.20;99.90;;;;;;5056076;28;20021;-55
2021/03/01 04:45:43;;;;;;;22.75;10.15;;;4.20;99.90;;;;;;5056095;28;20032;-50
2021/03/01 04:48:10;;;;;;;19.67;10.32;;;4.20;99.90;;;;;;5055930;28;20396;-53
2021/03/01 04:50:36;;;;;;;24.02;9.68;;;4.20;99.90;;;;;;5054823;28;20023;-56
2021/03/01 04:53:02;;;;;;;23.55;10.88;;;4.20;99.90;;;;;;5054139;28;20025;-53
2021/03/01 04:55:28;;;;;;;21.08;10.82;;;4.20;99.90;;;;;;5055694;28;20079;-57
2021/03/01 04:57:56;;;;;;;26.10;11.75;;;4.20;99.90;;;;;;5055626;28;20365;-55
2021/03/01 05:00:24;;;;;;;27.10;11.95;;;4.20;99.90;;;;;;5055947;28;20079;-55
2021/03/01 05:02:49;;;;;;;25.20;11.75;;;4.20;99.90;;;;;;5055575;28;20014;-55
2021/03/01 05:05:16;;;;;;;24.80;11.05;;;4.20;99.90;;;;;;5054346;28;20032;-56
2021/03/01 05:07:42;;;;;;;19.35;9.93;;;4.20;99.90;;;;;;5055301;28;20115;-52
2021/03/01 05:10:10;;;;;;;23.67;11.27;;;4.20;99.90;;;;;;5054076;28;20037;-56
2021/03/01 05:12:35;;;;;;;22.95;9.77;;;4.30;99.90;;;;;;5055265;28;20021;-55
2021/03/01 05:15:02;;;;;;;24.98;9.57;;;4.30;99.90;;;;;;5055065;28;20121;-54
2021/03/01 05:17:27;;;;;;;20.17;9.52;;;4.20;99.90;;;;;;5055352;28;20032;-57
2021/03/01 05:19:53;;;;;;;24.00;9.65;;;4.30;99.90;;;;;;5054212;28;20408;-52
2021/03/01 05:22:18;;;;;;;19.73;8.40;;;4.20;99.90;;;;;;5054947;28;20062;-57
2021/03/01 05:24:44;;;;;;;20.30;9.43;;;4.30;99.90;;;;;;5055381;28;20365;-57
2021/03/01 05:27:09;;;;;;;19.27;9.13;;;4.30;99.90;;;;;;5055079;28;20037;-53
2021/03/01 05:29:35;;;;;;;19.80;9.23;;;4.30;99.90;;;;;;5055024;28;20082;-55
2021/03/01 05:32:00;;;;;;;17.52;8.93;;;4.30;99.90;;;;;;5053714;28;20032;-52
2021/03/01 05:34:26;;;;;;;19.35;9.13;;;4.30;99.90;;;;;;5054112;28;20029;-56
2021/03/01 05:36:52;;;;;;;20.40;9.48;;;4.30;99.90;;;;;;5054797;28;20025;-54
2021/03/01 05:39:17;;;;;;;20.52;9.52;;;4.30;99.90;;;;;;5051265;28;20478;-51
2021/03/01 05:41:46;;;;;;;18.92;8.93;;;4.30;99.90;;;;;;5055211;28;20036;-54
2021/03/01 05:44:12;;;;;;;20.95;9.40;;;4.30;99.90;;;;;;5054703;28;20031;-55
2021/03/01 05:46:39;;;;;;;20.42;9.63;;;4.30;99.90;;;;;;5053536;28;20071;-54
2021/03/01 05:49:07;;;;;;;21.70;10.15;;;4.30;99.90;;;;;;5052941;28;20036;-52
2021/03/01 05:51:36;;;;;;;22.80;10.70;;;4.30;99.90;;;;;;5054320;28;20036;-56
2021/03/01 05:54:02;;;;;;;19.23;9.00;;;4.30;99.90;;;;;;5054174;28;20095;-54
2021/03/01 05:56:28;;;;;;;20.65;9.57;;;4.30;99.90;;;;;;5053170;28;20025;-53
2021/03/01 05:58:55;;;;;;;21.00;10.55;;;4.30;99.90;;;;;;5052026;28;20036;-55
2021/03/01 06:01:23;;;;;;;20.27;9.95;;;4.30;99.90;;;;;;5054356;28;20032;-51
2021/03/01 06:03:49;;;;;;;19.50;9.27;;;4.40;99.90;;;;;;5052181;28;20032;-54
2021/03/01 06:06:15;;;;;;;20.17;9.10;;;4.40;99.90;;;;;;5054087;28;20515;-56
2021/03/01 06:08:40;;;;;;;21.83;9.93;;;4.40;99.90;;;;;;5054521;28;20028;-52
2021/03/01 06:11:08;;;;;;;16.63;7.97;;;4.40;99.90;;;;;;5054002;28;20056;-56
2021/03/01 06:13:35;;;;;;;20.92;9.25;;;4.40;99.90;;;;;;5054443;28;20375;-56
2021/03/01 06:16:04;;;;;;;20.98;9.68;;;4.40;99.90;;;;;;5053940;28;20023;-51
2021/03/01 06:18:30;;;;;;;20.40;8.82;;;4.50;99.90;;;;;;5035229;28;20017;-55
2021/03/01 06:21:21;;;;;;;19.25;9.00;;;4.50;99.90;;;;;;5053778;28;20499;-56
2021/03/01 06:23:47;;;;;;;20.65;9.77;;;4.50;99.90;;;;;;5053975;28;20070;-56
2021/03/01 06:26:30;;;;;;;20.23;10.43;;;4.50;99.90;;;;;;5053651;28;20032;-54
2021/03/01 06:29:04;;;;;;;19.70;9.52;;;4.50;99.90;;;;;;5052489;28;20025;-56
2021/03/01 06:31:44;;;;;;;19.23;9.07;;;4.60;99.90;;;;;;5053841;28;20021;-53
2021/03/01 06:34:26;;;;;;;21.75;9.93;;;4.60;99.90;;;;;;5052679;28;20395;-54
2021/03/01 06:37:10;;;;;;;22.27;10.40;;;4.60;99.90;;;;;;5053701;28;20383;-56
2021/03/01 06:39:39;;;;;;;18.73;9.50;;;4.70;99.90;;;;;;5053395;28;20021;-53
2021/03/01 06:42:17;;;;;;;22.23;10.50;;;4.70;99.90;;;;;;5053418;28;20029;-53
2021/03/01 06:44:43;;;;;;;24.80;10.65;;;4.70;99.90;;;;;;5053501;28;20023;-53
2021/03/01 06:47:09;;;;;;;19.70;9.82;;;4.70;99.90;;;;;;5052194;28;20372;-54
2021/03/01 06:49:35;;;;;;;24.05;9.88;;;4.80;99.90;;;;;;5052260;28;20036;-53
2021/03/01 06:52:01;;;;;;;20.13;9.95;;;4.80;99.90;;;;;;5053066;28;20029;-56
2021/03/01 06:54:27;;;;;;;24.15;10.50;;;4.90;99.90;;;;;;5051749;28;20048;-52
2021/03/01 06:56:53;;;;;;;21.90;11.23;;;4.90;99.90;;;;;;5053204;28;20029;-53
2021/03/01 06:59:19;;;;;;;23.02;10.43;;;4.90;99.90;;;;;;5052375;28;20021;-53
2021/03/01 07:01:47;;;;;;;16.92;9.00;;;4.90;99.90;;;;;;5053157;28;20392;-55
2021/03/01 07:04:24;;;;;;;23.08;10.25;;;5.00;99.90;;;;;;5051729;28;20033;-55
2021/03/01 07:06:52;;;;;;;24.33;9.85;;;5.10;99.90;;;;;;5053131;28;20057;-54
2021/03/01 07:09:21;;;;;;;17.88;8.80;;;5.10;99.90;;;;;;5053103;28;20024;-54
2021/03/01 07:11:47;;;;;;;25.80;14.25;;;5.20;99.90;;;;;;5052828;28;20021;-52
2021/03/01 07:14:16;;;;;;;21.27;10.73;;;5.20;99.90;;;;;;5052884;28;20028;-56
2021/03/01 07:16:49;;;;;;;18.52;8.82;;;5.30;99.90;;;;;;5052817;28;20025;-52
2021/03/01 07:19:17;;;;;;;26.00;11.10;;;5.30;99.90;;;;;;5050104;28;20109;-51
2021/03/01 07:21:45;;;;;;;22.90;11.10;;;5.30;99.90;;;;;;5052715;28;20078;-55
2021/03/01 07:24:11;;;;;;;19.60;9.43;;;5.30;99.90;;;;;;5052786;28;20108;-51
2021/03/01 07:26:37;;;;;;;16.33;9.73;;;5.40;99.90;;;;;;5052614;28;20071;-52
2021/03/01 07:29:14;;;;;;;22.92;11.52;;;5.50;99.90;;;;;;5052728;28;20036;-55
2021/03/01 07:32:06;;;;;;;16.65;10.57;;;5.50;99.90;;;;;;5052543;28;20033;-56
2021/03/01 07:34:34;;;;;;;27.52;10.38;;;5.60;99.90;;;;;;5051101;28;20044;-56
2021/03/01 07:37:00;;;;;;;23.88;10.00;;;5.60;99.90;;;;;;5052549;28;20017;-55
2021/03/01 07:39:28;;;;;;;17.83;9.65;;;5.70;99.90;;;;;;5052684;28;20483;-52
2021/03/01 07:41:55;;;;;;;16.77;8.82;;;5.80;99.90;;;;;;5052244;28;20494;-54
2021/03/01 07:44:32;;;;;;;18.25;9.07;;;5.90;99.90;;;;;;5052471;28;20021;-55
2021/03/01 07:46:59;;;;;;;17.42;9.15;;;6.00;99.90;;;;;;5052419;28;20036;-53
2021/03/01 07:49:45;;;;;;;28.27;9.30;;;6.10;99.90;;;;;;5051224;28;20400;-55
2021/03/01 07:52:20;;;;;;;20.25;9.35;;;6.20;99.90;;;;;;5052283;28;20053;-54
2021/03/01 07:54:51;;;;;;;20.20;9.48;;;6.30;99.90;;;;;;5052214;28;20045;-55
2021/03/01 07:57:21;;;;;;;18.55;9.10;;;6.40;99.90;;;;;;5051510;28;20476;-56
2021/03/01 07:59:47;;;;;;;21.20;10.13;;;6.50;99.90;;;;;;5052309;28;20083;-56
2021/03/01 08:02:21;;;;;;;15.27;9.05;;;6.60;99.90;;;;;;5050874;28;20025;-56
2021/03/01 08:04:48;;;;;;;19.25;9.07;;;6.60;99.90;;;;;;5051118;28;20069;-54
2021/03/01 08:07:14;;;;;;;17.30;9.07;;;6.70;99.90;;;;;;5051958;28;20032;-53
2021/03/01 08:09:46;;;;;;;18.40;8.13;;;6.80;99.90;;;;;;5052287;28;20380;-53
2021/03/01 08:12:33;;;;;;;20.88;8.65;;;6.90;99.90;;;;;;5055649;28;20101;-55
2021/03/01 08:15:03;;;;;;;13.38;7.85;;;6.90;99.90;;;;;;5049040;28;20037;-55
2021/03/01 08:17:39;;;;;;;16.80;8.77;;;7.00;99.90;;;;;;5056227;28;20022;-56
2021/03/01 08:20:11;;;;;;;15.85;8.45;;;7.10;99.90;;;;;;5054985;28;20024;-55
2021/03/01 08:23:02;;;;;;;17.05;8.43;;;7.20;99.90;;;;;;5056467;28;20021;-57
2021/03/01 08:25:51;;;;;;;15.10;7.85;;;7.30;99.90;;;;;;5056111;28;20499;-53
2021/03/01 08:28:17;;;;;;;17.00;8.27;;;7.30;99.90;;;;;;5056234;28;20029;-55
2021/03/01 08:31:19;;;;;;;15.60;8.00;;;7.40;99.90;;;;;;5056176;28;20021;-51
2021/03/01 08:33:45;;;;;;;15.15;8.43;;;7.40;99.90;;;;;;5033115;28;20392;-54
2021/03/01 08:36:13;;;;;;;15.65;8.43;;;7.50;99.90;;;;;;5055872;28;20112;-56
2021/03/01 08:38:53;;;;;;;18.17;9.52;;;7.60;99.90;;;;;;5056131;28;20104;-56
2021/03/01 08:41:40;;;;;;;17.35;8.75;;;7.60;99.90;;;;;;5055714;28;20022;-56
2021/03/01 08:44:15;;;;;;;;;;;7.70;99.90;;;;;;5055037;28;20089;-57
2021/03/01 08:46:41;;;;;;;17.90;9.98;;;7.70;99.90;;;;;;5055542;28;19905;-55
2021/03/01 08:49:07;;;;;;;19.27;9.75;;;7.70;99.90;;;;;;5053240;28;20124;-52
2021/03/01 08:51:35;;;;;;;14.85;8.90;;;7.70;99.90;;;;;;5055509;28;20440;-57
2021/03/01 08:54:01;;;;;;;15.27;9.15;;;7.70;99.90;;;;;;5055573;28;20056;-57
2021/03/01 08:56:27;;;;;;;16.10;8.65;;;7.70;99.90;;;;;;5055793;28;20037;-54
2021/03/01 08:58:54;;;;;;;14.65;8.02;;;7.80;99.90;;;;;;5055644;28;20025;-56
2021/03/01 09:01:19;;;;;;;19.33;10.20;;;7.80;99.90;;;;;;5055274;28;20254;-52
2021/03/01 09:03:46;;;;;;;21.35;10.18;;;7.90;99.90;;;;;;5054461;28;20076;-54
2021/03/01 09:06:13;;;;;;;16.35;7.68;;;7.90;99.90;;;;;;5055415;28;20033;-54
2021/03/01 09:08:47;;;;;;;19.92;8.95;;;8.00;99.90;;;;;;5055575;28;20025;-57
2021/03/01 09:11:23;;;;;;;17.08;8.90;;;8.00;99.90;;;;;;5055365;28;20041;-53
2021/03/01 09:13:51;;;;;;;16.15;8.27;;;8.00;99.90;;;;;;5055175;28;20028;-53
2021/03/01 09:16:27;;;;;;;21.45;8.75;;;8.10;99.90;;;;;;5055222;28;20116;-54
2021/03/01 09:19:11;;;;;;;11.80;6.72;;;8.20;99.90;;;;;;5054046;28;20025;-55
2021/03/01 09:21:40;;;;;;;14.30;7.65;;;8.30;99.90;;;;;;5054742;28;20025;-55
2021/03/01 09:24:07;;;;;;;13.55;7.80;;;8.40;99.90;;;;;;5053436;28;20027;-55
2021/03/01 09:26:39;;;;;;;14.02;7.45;;;8.60;99.90;;;;;;5055175;28;20483;-56
2021/03/01 09:29:10;;;;;;;14.88;8.05;;;8.60;99.00;;;;;;5055066;28;20491;-52
2021/03/01 09:31:42;;;;;;;20.10;10.43;;;8.70;99.20;;;;;;5053652;28;20032;-54
2021/03/01 09:34:09;;;;;;;15.07;9.60;;;8.70;98.10;;;;;;5053949;28;20021;-57
2021/03/01 09:36:35;;;;;;;14.95;8.48;;;8.80;97.90;;;;;;5054817;28;20094;-53
2021/03/01 09:39:03;;;;;;;22.15;11.68;;;8.80;97.20;;;;;;5053612;28;20477;-56
2021/03/01 09:41:36;;;;;;;15.52;8.40;;;8.90;96.80;;;;;;5054548;28;20396;-55
2021/03/01 09:44:02;;;;;;;16.77;8.63;;;8.90;95.50;;;;;;5053441;28;20079;-57
2021/03/01 09:46:28;;;;;;;12.68;7.00;;;8.90;96.10;;;;;;5054638;28;20025;-56
2021/03/01 09:49:01;;;;;;;12.07;7.07;;;9.00;95.80;;;;;;5053567;28;20029;-53
2021/03/01 09:51:28;;;;;;;13.07;7.38;;;9.10;94.50;;;;;;5054429;28;20072;-54
2021/03/01 09:53:54;;;;;;;15.25;7.65;;;9.30;94.40;;;;;;5054620;28;20120;-54
2021/03/01 09:56:19;;;;;;;14.35;8.15;;;9.40;93.90;;;;;;5054497;28;20060;-57
2021/03/01 09:58:46;;;;;;;15.48;8.00;;;9.50;94.30;;;;;;5054475;28;20025;-55
2021/03/01 10:01:16;;;;;;;13.07;7.55;;;9.60;93.80;;;;;;5054362;28;20028;-54
2021/03/01 10:03:48;;;;;;;15.60;8.18;;;9.70;93.90;;;;;;5053538;28;20138;-56
2021/03/01 10:06:16;;;;;;;14.88;7.30;;;9.80;92.60;;;;;;5054294;28;20039;-57
2021/03/01 10:08:43;;;;;;;11.75;7.65;;;9.80;91.00;;;;;;5054479;28;20357;-57
2021/03/01 10:11:22;;;;;;;12.80;7.55;;;9.80;92.20;;;;;;5054233;28;20056;-57
2021/03/01 10:13:48;;;;;;;15.68;7.78;;;9.90;91.00;;;;;;5052833;28;20364;-55
2021/03/01 10:16:27;;;;;;;16.50;8.23;;;9.90;91.50;;;;;;5054163;28;20032;-55
2021/03/01 10:18:53;;;;;;;16.73;9.57;;;10.00;89.70;;;;;;5052865;28;20028;-56
2021/03/01 10:21:30;;;;;;;13.75;8.15;;;10.10;90.80;;;;;;5053958;28;20480;-58
2021/03/01 10:24:06;;;;;;;14.43;8.52;;;10.40;90.20;;;;;;5054131;28;20025;-56
2021/03/01 10:26:32;;;;;;;15.02;9.32;;;10.70;88.50;;;;;;5053941;28;20060;-56
2021/03/01 10:29:00;;;;;;;12.80;8.38;;;10.80;87.90;;;;;;5053865;28;20041;-53
2021/03/01 10:31:33;;;;;;;19.80;9.82;;;10.80;86.80;;;;;;5053628;28;20025;-56
2021/03/01 10:34:00;;;;;;;17.65;10.32;;;10.90;87.00;;;;;;5052486;28;20490;-56
2021/03/01 10:36:34;;;;;;;18.40;10.57;;;10.90;86.50;;;;;;5053687;28;20028;-56
2021/03/01 10:39:18;;;;;;;19.08;10.73;;;11.10;86.10;;;;;;5053953;28;20064;-52
2021/03/01 10:41:49;;;;;;;13.70;8.43;;;11.10;85.20;;;;;;5053588;28;20025;-56
2021/03/01 10:44:16;;;;;;;13.35;8.20;;;11.10;85.30;;;;;;5053696;28;20051;-56
2021/03/01 10:46:47;;;;;;;17.27;10.20;;;11.10;85.30;;;;;;5053615;28;20528;-54
2021/03/01 10:49:22;;;;;;;13.98;8.80;;;11.00;84.80;;;;;;5052431;28;20472;-56
2021/03/01 10:51:49;;;;;;;16.47;8.53;;;10.90;85.70;;;;;;5052112;28;20107;-56
2021/03/01 10:54:15;;;;;;;15.05;8.65;;;10.90;85.30;;;;;;5053178;28;20045;-52
2021/03/01 10:56:40;;;;;;;19.48;11.40;;;10.90;85.40;;;;;;5053347;28;20108;-57
2021/03/01 10:59:06;;;;;;;18.90;11.05;;;11.10;85.60;;;;;;5053553;28;20053;-54
2021/03/01 11:01:45;;;;;;;19.60;11.73;;;11.10;84.00;;;;;;5053053;28;20051;-55
2021/03/01 11:04:12;;;;;;;18.10;11.63;;;11.10;83.10;;;;;;5052059;28;20180;-57
2021/03/01 11:06:38;;;;;;;25.05;13.68;;;11.10;83.50;;;;;;5052882;28;20484;-54
2021/03/01 11:09:06;;;;;;;19.73;11.77;;;11.00;83.90;;;;;;5053342;28;20047;-57
2021/03/01 11:11:33;;;;;;;21.15;13.10;;;11.00;83.50;;;;;;5052958;28;20109;-53
2021/03/01 11:13:58;;;;;;;19.33;10.63;;;10.90;84.30;;;;;;5053176;28;20486;-56
2021/03/01 11:16:24;;;;;;;26.15;13.73;;;10.90;83.90;;;;;;5052773;28;20199;-56
2021/03/01 11:18:49;;;;;;;21.48;12.95;;;10.90;84.40;;;;;;5050822;28;20492;-56
2021/03/01 11:21:15;;;;;;;23.27;14.45;;;10.80;84.00;;;;;;5052897;28;20037;-58
2021/03/01 11:23:41;;;;;;;21.83;12.63;;;10.70;83.60;;;;;;5052933;28;20113;-55
2021/03/01 11:26:07;;;;;;;20.42;10.43;;;10.60;84.00;;;;;;5052957;28;20021;-56
2021/03/01 11:28:33;;;;;;;18.90;10.93;;;10.40;84.00;;;;;;5051478;28;20365;-55
2021/03/01 11:30:58;;;;;;;16.67;10.70;;;10.30;84.30;;;;;;5052807;28;20161;-57
2021/03/01 11:33:24;;;;;;;19.30;11.60;;;10.20;85.00;;;;;;5051368;28;20044;-55
2021/03/01 11:35:51;;;;;;;19.17;11.70;;;10.00;84.80;;;;;;5052755;28;20479;-57
2021/03/01 11:38:18;;;;;;;19.95;13.75;;;9.90;84.90;;;;;;5052666;28;20464;-54
2021/03/01 11:40:44;;;;;;;22.52;13.30;;;9.90;85.40;;;;;;5052709;28;20024;-57
2021/03/01 11:43:10;;;;;;;22.92;13.00;;;9.70;85.30;;;;;;5052539;28;20025;-57
2021/03/01 11:45:35;;;;;;;21.85;13.95;;;9.60;85.60;;;;;;5051905;28;20380;-58
2021/03/01 11:48:01;;;;;;;19.92;12.90;;;9.50;85.90;;;;;;5052572;28;20048;-53
2021/03/01 11:50:28;;;;;;;20.05;13.07;;;9.40;85.80;;;;;;5051158;28;20028;-58
2021/03/01 11:52:53;;;;;;;24.08;14.23;;;9.40;86.30;;;;;;5052030;28;20108;-56
2021/03/01 11:55:19;;;;;;;18.35;11.70;;;9.40;86.50;;;;;;5052424;28;20100;-57
2021/03/01 11:57:45;;;;;;;20.65;13.07;;;9.40;86.30;;;;;;5052418;28;20048;-53
2021/03/01 12:00:11;;;;;;;21.88;12.70;;;9.30;86.40;;;;;;5052539;28;20534;-55
2021/03/01 12:02:36;;;;;;;22.35;13.93;;;9.30;86.60;;;;;;5052275;28;20071;-54
2021/03/01 12:05:02;;;;;;;27.63;14.80;;;9.30;86.20;;;;;;5051221;28;20029;-55
2021/03/01 12:07:27;;;;;;;19.25;12.18;;;9.20;86.40;;;;;;5052290;28;20044;-56
2021/03/01 12:09:53;;;;;;;22.83;14.73;;;9.20;85.90;;;;;;5052452;28;20025;-54
2021/03/01 12:12:18;;;;;;;21.80;14.20;;;9.10;86.50;;;;;;5052249;28;20411;-55
2021/03/01 12:14:44;;;;;;;21.27;12.80;;;9.10;86.50;;;;;;5052132;28;20040;-53
2021/03/01 12:17:10;;;;;;;19.80;12.40;;;9.10;87.00;;;;;;5052003;28;20092;-56
2021/03/01 12:19:37;;;;;;;18.48;12.27;;;9.00;86.40;;;;;;5050857;28;20387;-57
2021/03/01 12:22:03;;;;;;;22.63;12.45;;;9.10;86.60;;;;;;5051457;28;20017;-54
2021/03/01 12:24:29;;;;;;;22.85;15.13;;;9.00;86.50;;;;;;5051600;28;20275;-53
2021/03/01 12:26:54;;;;;;;26.67;14.50;;;9.10;86.90;;;;;;5051409;28;20036;-52
2021/03/01 12:29:20;;;;;;;22.60;14.80;;;9.10;86.50;;;;;;5051702;28;20112;-56
2021/03/01 12:31:46;;;;;;;22.63;13.70;;;9.20;86.20;;;;;;5051567;28;20033;-56
2021/03/01 12:34:11;;;;;;;23.08;15.32;;;9.20;86.10;;;;;;5050611;28;20029;-57
2021/03/01 12:36:37;;;;;;;19.10;12.52;;;9.10;86.40;;;;;;5050597;28;20096;-56
2021/03/01 12:39:04;;;;;;;22.48;12.55;;;9.10;86.20;;;;;;5050553;28;20100;-55
2021/03/01 12:41:29;;;;;;;18.48;11.50;;;9.10;85.80;;;;;;5051313;28;20032;-57
2021/03/01 12:43:55;;;;;;;21.45;13.40;;;9.10;86.10;;;;;;5051275;28;20025;-54
2021/03/01 12:46:20;;;;;;;23.98;13.52;;;9.00;85.30;;;;;;5051968;28;20075;-57
2021/03/01 12:48:46;;;;;;;19.13;12.75;;;9.00;85.90;;;;;;5050678;28;20028;-54